createdAt,value
2023-02-27T00:00:05.104Z,8.2
2023-02-27T00:05:05.104Z,7.9
2023-02-27T00:10:05.104Z,8.1
2023-02-27T00:15:05.099Z,8.2
2023-02-27T00:20:05.107Z,8.2
2023-02-27T00:25:05.109Z,8.2
2023-02-27T00:30:05.106Z,7.9
2023-02-27T00:35:05.108Z,7.6
2023-02-27T00:40:05.153Z,8.1
2023-02-27T00:45:05.105Z,7.7
2023-02-27T00:50:05.096Z,7.9
2023-02-27T00:55:05.108Z,7.9
2023-02-27T01:00:05.100Z,7.8
2023-02-27T01:05:05.107Z,8.1
2023-02-27T01:10:05.108Z,7.6
2023-02-27T01:15:05.106Z,7.7
2023-02-27T01:20:05.099Z,7.7
2023-02-27T01:25:05.096Z,7.7
2023-02-27T01:30:05.102Z,7.6
2023-02-27T01:35:05.114Z,7.7
2023-02-27T01:40:05.105Z,7.7
2023-02-27T01:45:05.102Z,7.7
2023-02-27T01:50:05.098Z,7.8
2023-02-27T01:55:05.110Z,7.8
2023-02-27T02:00:05.139Z,7.7
2023-02-27T02:05:05.104Z,7.7
2023-02-27T02:10:05.105Z,7.6
2023-02-27T02:15:05.111Z,7.7
2023-02-27T02:20:05.101Z,7.8
2023-02-27T02:25:05.109Z,7.8
2023-02-27T02:30:05.095Z,7.7
2023-02-27T02:35:05.136Z,7.6
2023-02-27T02:40:05.099Z,7.6
2023-02-27T02:45:05.106Z,7.5
2023-02-27T02:50:05.108Z,7.6
2023-02-27T02:55:05.112Z,7.6
2023-02-27T03:00:05.102Z,7.5
2023-02-27T03:05:05.111Z,7.4
2023-02-27T03:10:05.105Z,7.9
2023-02-27T03:15:05.114Z,7.8
2023-02-27T03:20:05.100Z,7.4
2023-02-27T03:25:05.095Z,7.4
2023-02-27T03:30:05.098Z,7.5
2023-02-27T03:35:05.099Z,7.6
2023-02-27T03:40:05.095Z,7.6
2023-02-27T03:45:05.102Z,7.8
2023-02-27T03:50:05.092Z,7.6
2023-02-27T03:55:05.102Z,7.6
2023-02-27T04:00:05.088Z,7.6
2023-02-27T04:05:05.097Z,7.6
2023-02-27T04:10:05.096Z,7.6
2023-02-27T04:15:05.101Z,7.5
2023-02-27T04:20:05.100Z,7.4
2023-02-27T04:25:05.124Z,7.4
2023-02-27T04:30:05.108Z,7.5
2023-02-27T04:35:05.170Z,7.5
2023-02-27T04:40:05.109Z,7.7
2023-02-27T04:45:05.114Z,7.9
2023-02-27T04:50:05.112Z,7.6
2023-02-27T04:55:05.115Z,7.6
2023-02-27T05:00:05.110Z,7.6
2023-02-27T05:05:05.102Z,7.6
2023-02-27T05:10:05.106Z,7.5
2023-02-27T05:15:05.103Z,7.9
2023-02-27T05:20:05.105Z,8
2023-02-27T05:25:05.102Z,8
2023-02-27T05:30:05.147Z,7.7
2023-02-27T05:35:05.108Z,7.9
2023-02-27T05:40:05.110Z,7.7
2023-02-27T05:45:05.107Z,8.3
2023-02-27T05:50:05.111Z,7.6
2023-02-27T05:55:05.101Z,7.6
2023-02-27T06:00:05.100Z,7.7
2023-02-27T06:05:05.105Z,7.6
2023-02-27T06:10:05.099Z,7.8
2023-02-27T06:15:05.131Z,8.2
2023-02-27T06:20:05.106Z,7.9
2023-02-27T06:25:05.109Z,7.9
2023-02-27T06:30:05.101Z,8
2023-02-27T06:35:05.109Z,8.1
2023-02-27T06:40:05.096Z,7.8
2023-02-27T06:45:05.107Z,8.1
2023-02-27T06:50:05.094Z,7.9
2023-02-27T06:55:05.103Z,7.9
2023-02-27T07:00:05.084Z,8
2023-02-27T07:05:07.824Z,7.9
2023-02-27T07:10:05.103Z,8
2023-02-27T07:15:05.100Z,8
2023-02-27T07:20:05.092Z,8.5
2023-02-27T07:25:05.099Z,8.5
2023-02-27T07:30:05.100Z,8
2023-02-27T07:35:05.109Z,8.2
2023-02-27T07:40:05.104Z,8.1
2023-02-27T07:45:05.214Z,8.2
2023-02-27T07:50:05.146Z,8.3
2023-02-27T07:55:05.105Z,8.3
2023-02-27T08:00:05.102Z,8.2
2023-02-27T08:05:05.116Z,8.1
2023-02-27T08:10:05.107Z,8.2
2023-02-27T08:15:05.145Z,8
2023-02-27T08:20:05.117Z,7.9
2023-02-27T08:25:05.098Z,7.9
2023-02-27T08:30:05.104Z,8
2023-02-27T08:35:05.093Z,8.1
2023-02-27T08:40:05.101Z,7.9
2023-02-27T08:45:05.107Z,8
2023-02-27T08:50:05.110Z,7.7
2023-02-27T08:55:05.104Z,7.7
2023-02-27T09:00:05.127Z,8
2023-02-27T09:05:05.214Z,7.9
2023-02-27T09:10:05.089Z,8.2
2023-02-27T09:15:05.094Z,8.3
2023-02-27T09:20:05.099Z,8.1
2023-02-27T09:25:05.115Z,8.1
2023-02-27T09:30:05.105Z,8.2
2023-02-27T09:35:05.107Z,8.6
2023-02-27T09:40:05.094Z,8.3
2023-02-27T09:45:06.098Z,8.5
2023-02-27T09:50:05.106Z,8.4
2023-02-27T09:55:05.109Z,8.4
2023-02-27T10:00:05.122Z,8.9
2023-02-27T10:05:05.096Z,8.4
2023-02-27T10:10:05.098Z,8.4
2023-02-27T10:15:05.110Z,8.6
2023-02-27T10:20:05.097Z,8.5
2023-02-27T10:25:06.229Z,8.5
2023-02-27T10:30:05.114Z,8.6
2023-02-27T10:35:05.096Z,8.2
2023-02-27T10:40:05.107Z,8
2023-02-27T10:45:05.110Z,8.2
2023-02-27T10:50:05.089Z,8.4
2023-02-27T10:55:05.106Z,8.4
2023-02-27T11:00:05.097Z,8.4
2023-02-27T11:05:05.095Z,8
2023-02-27T11:10:05.093Z,8
2023-02-27T11:15:05.099Z,8.2
2023-02-27T11:20:05.094Z,8.3
2023-02-27T11:25:05.111Z,8.3
2023-02-27T11:30:05.099Z,8
2023-02-27T11:35:05.100Z,7.9
2023-02-27T11:40:05.114Z,8.1
2023-02-27T11:45:05.107Z,7.9
2023-02-27T11:50:05.110Z,7.8
2023-02-27T11:55:05.150Z,7.8
2023-02-27T12:00:05.107Z,8
2023-02-27T12:05:05.115Z,8
2023-02-27T12:10:05.108Z,7.9
2023-02-27T12:15:05.227Z,8.3
2023-02-27T12:20:05.099Z,8
2023-02-27T12:25:05.099Z,8
2023-02-27T12:30:05.098Z,8
2023-02-27T12:35:05.102Z,8
2023-02-27T12:40:05.158Z,7.7
2023-02-27T12:45:05.103Z,7.9
2023-02-27T12:50:05.098Z,7.7
2023-02-27T12:55:05.098Z,7.7
2023-02-27T13:00:05.088Z,8
2023-02-27T13:05:05.099Z,7.7
2023-02-27T13:10:05.104Z,7.6
2023-02-27T13:15:05.113Z,7.8
2023-02-27T13:20:05.098Z,7.6
2023-02-27T13:25:05.098Z,7.6
2023-02-27T13:30:05.135Z,7.6
2023-02-27T13:35:05.105Z,7.4
2023-02-27T13:40:05.098Z,7.5
2023-02-27T13:45:05.099Z,7.5
2023-02-27T13:50:05.106Z,7.3
2023-02-27T13:55:11.727Z,7.3
2023-02-27T14:00:05.101Z,7.3
2023-02-27T14:05:05.105Z,7.5
2023-02-27T14:10:05.106Z,7.4
2023-02-27T14:15:05.105Z,7.4
2023-02-27T14:20:05.095Z,7.9
2023-02-27T14:25:05.108Z,7.9
2023-02-27T14:30:05.105Z,7.5
2023-02-27T14:35:05.096Z,7.6
2023-02-27T14:40:05.098Z,7.6
2023-02-27T14:45:05.091Z,7.7
2023-02-27T14:50:05.097Z,7.7
2023-02-27T14:55:05.111Z,7.7
2023-02-27T15:00:05.108Z,7.7
2023-02-27T15:05:05.098Z,7.9
2023-02-27T15:10:05.176Z,7.8
2023-02-27T15:15:05.125Z,7.9
2023-02-27T15:20:05.235Z,7.8
2023-02-27T15:25:05.104Z,7.8
2023-02-27T15:30:05.245Z,7.6
2023-02-27T15:35:05.110Z,7.5
2023-02-27T15:40:05.114Z,7.8
2023-02-27T15:45:05.109Z,7.6
2023-02-27T15:50:05.137Z,7.6
2023-02-27T15:55:05.118Z,7.6
2023-02-27T16:00:05.113Z,7.8
2023-02-27T16:05:05.115Z,7.5
2023-02-27T16:10:05.108Z,7.4
2023-02-27T16:15:05.113Z,7.4
2023-02-27T16:20:06.283Z,7.7
2023-02-27T16:25:05.101Z,7.7
2023-02-27T16:30:05.098Z,7.4
2023-02-27T16:35:05.098Z,7.5
2023-02-27T16:40:05.103Z,7.7
2023-02-27T16:45:05.103Z,7.6
2023-02-27T16:50:05.106Z,7.5
2023-02-27T16:55:05.105Z,7.5
2023-02-27T17:00:05.101Z,7.7
2023-02-27T17:05:05.161Z,7.5
2023-02-27T17:10:05.092Z,7.9
2023-02-27T17:15:05.103Z,7.7
2023-02-27T17:20:05.101Z,8
2023-02-27T17:25:05.110Z,8
2023-02-27T17:30:05.102Z,7.7
2023-02-27T17:35:05.104Z,7.8
2023-02-27T17:40:05.107Z,7.9
2023-02-27T17:45:05.110Z,8
2023-02-27T17:50:05.114Z,7.8
2023-02-27T17:55:05.112Z,7.8
2023-02-27T18:00:05.128Z,7.8
2023-02-27T18:05:05.099Z,8
2023-02-27T18:10:05.105Z,7.7
2023-02-27T18:15:05.104Z,7.9
2023-02-27T18:20:05.101Z,7.8
2023-02-27T18:25:05.106Z,7.8
2023-02-27T18:30:05.103Z,7.7
2023-02-27T18:35:05.106Z,8
2023-02-27T18:40:05.115Z,8.1
2023-02-27T18:45:05.093Z,8.3
2023-02-27T18:50:05.099Z,8.2
2023-02-27T18:55:05.096Z,8.2
2023-02-27T19:00:05.097Z,8.1
2023-02-27T19:05:05.125Z,7.8
2023-02-27T19:10:05.096Z,8.1
2023-02-27T19:15:05.089Z,7.8
2023-02-27T19:20:05.102Z,7.7
2023-02-27T19:25:05.097Z,7.7
2023-02-27T19:30:05.100Z,7.9
2023-02-27T19:35:05.111Z,7.7
2023-02-27T19:40:05.106Z,7.9
2023-02-27T19:45:05.166Z,7.6
2023-02-27T19:50:05.106Z,7.8
2023-02-27T19:55:05.118Z,7.8
2023-02-27T20:00:05.102Z,7.8
2023-02-27T20:05:05.108Z,7.7
2023-02-27T20:10:05.099Z,7.9
2023-02-27T20:15:06.130Z,7.9
2023-02-27T20:20:05.111Z,8
2023-02-27T20:25:05.094Z,8
2023-02-27T20:30:05.108Z,8.5
2023-02-27T20:35:05.097Z,8.2
2023-02-27T20:40:05.100Z,8.3
2023-02-27T20:45:05.096Z,8.5
2023-02-27T20:50:05.103Z,8.7
2023-02-27T20:55:05.114Z,8.7
2023-02-27T21:00:05.096Z,8.9
2023-02-27T21:05:05.260Z,8.5
2023-02-27T21:10:05.107Z,8.9
2023-02-27T21:15:05.119Z,9
2023-02-27T21:20:06.723Z,8.7
2023-02-27T21:25:05.099Z,8.7
2023-02-27T21:30:05.102Z,8.9
2023-02-27T21:35:05.111Z,9
2023-02-27T21:40:05.106Z,9.1
2023-02-27T21:45:05.097Z,9.2
2023-02-27T21:50:05.090Z,9.2
2023-02-27T21:55:05.097Z,9.2
2023-02-27T22:00:05.119Z,9.4
2023-02-27T22:05:05.103Z,9.4
2023-02-27T22:10:05.088Z,9.3
2023-02-27T22:15:05.100Z,9.4
2023-02-27T22:20:05.094Z,10.1
2023-02-27T22:25:05.102Z,10.1
2023-02-27T22:30:05.102Z,10
2023-02-27T22:35:05.091Z,9.6
2023-02-27T22:40:05.094Z,9.8
2023-02-27T22:45:05.093Z,9.3
2023-02-27T22:50:05.096Z,10.7
2023-02-27T22:55:05.118Z,10.7
2023-02-27T23:00:05.094Z,9.9
2023-02-27T23:05:05.100Z,10.5
2023-02-27T23:10:05.100Z,10.3
2023-02-27T23:15:05.126Z,10.6
2023-02-27T23:20:05.091Z,10.5
2023-02-27T23:25:05.122Z,10.5
2023-02-27T23:30:05.091Z,10.1
2023-02-27T23:35:05.096Z,10.3
2023-02-27T23:40:05.096Z,10.4
2023-02-27T23:45:05.169Z,10.5
2023-02-27T23:50:05.098Z,10.5
2023-02-27T23:55:05.108Z,10.5
